sensor_id;sensor_type;location;lat;lon;timestamp;P1;P2;P0
43479;PMS5003;29067;35.492;-97.520;2023-08-07T00:00:45;4;4;
43479;PMS5003;29067;35.492;-97.520;2023-08-07T00:03:14;5;4;
43479;PMS5003;29067;35.492;-97.520;2023-08-07T00:05:44;5;5;
43479;PMS5003;29067;35.492;-97.520;2023-08-07T00:08:12;5;5;
43479;PMS5003;29067;35.492;-97.520;2023-08-07T00:10:40;4;4;
43479;PMS5003;29067;35.492;-97.520;2023-08-07T00:13:09;3;3;
43479;PMS5003;29067;35.492;-97.520;2023-08-07T00:15:37;5;5;
43479;PMS5003;29067;35.492;-97.520;2023-08-07T00:18:06;4;4;
43479;PMS5003;29067;35.492;-97.520;2023-08-07T00:20:35;4;4;
43479;PMS5003;29067;35.492;-97.520;2023-08-07T00:23:03;4;4;
43479;PMS5003;29067;35.492;-97.520;2023-08-07T00:25:31;2;2;
43479;PMS5003;29067;35.492;-97.520;2023-08-07T00:28:00;4;4;
43479;PMS5003;29067;35.492;-97.520;2023-08-07T00:30:28;6;5;
43479;PMS5003;29067;35.492;-97.520;2023-08-07T00:32:56;4;4;
43479;PMS5003;29067;35.492;-97.520;2023-08-07T00:35:24;5;4;
43479;PMS5003;29067;35.492;-97.520;2023-08-07T00:37:53;6;5;
43479;PMS5003;29067;35.492;-97.520;2023-08-07T00:40:21;3;3;
43479;PMS5003;29067;35.492;-97.520;2023-08-07T00:42:49;3;3;
43479;PMS5003;29067;35.492;-97.520;2023-08-07T00:45:18;4;3;
43479;PMS5003;29067;35.492;-97.520;2023-08-07T00:47:46;5;4;
43479;PMS5003;29067;35.492;-97.520;2023-08-07T00:50:14;3;3;
43479;PMS5003;29067;35.492;-97.520;2023-08-07T00:52:43;4;4;
43479;PMS5003;29067;35.492;-97.520;2023-08-07T00:55:11;4;4;
43479;PMS5003;29067;35.492;-97.520;2023-08-07T00:57:39;4;4;
43479;PMS5003;29067;35.492;-97.520;2023-08-07T01:00:07;3;3;
43479;PMS5003;29067;35.492;-97.520;2023-08-07T01:02:36;3;3;
43479;PMS5003;29067;35.492;-97.520;2023-08-07T01:05:10;2;2;
43479;PMS5003;29067;35.492;-97.520;2023-08-07T01:07:38;4;3;
43479;PMS5003;29067;35.492;-97.520;2023-08-07T01:10:06;4;4;
43479;PMS5003;29067;35.492;-97.520;2023-08-07T01:12:36;4;4;
43479;PMS5003;29067;35.492;-97.520;2023-08-07T01:15:16;4;4;
43479;PMS5003;29067;35.492;-97.520;2023-08-07T01:17:48;3;3;
43479;PMS5003;29067;35.492;-97.520;2023-08-07T01:20:19;5;5;
43479;PMS5003;29067;35.492;-97.520;2023-08-07T01:22:47;4;4;
43479;PMS5003;29067;35.492;-97.520;2023-08-07T01:25:16;4;4;
43479;PMS5003;29067;35.492;-97.520;2023-08-07T01:27:46;6;6;
43479;PMS5003;29067;35.492;-97.520;2023-08-07T01:30:28;5;5;
43479;PMS5003;29067;35.492;-97.520;2023-08-07T01:33:05;6;6;
43479;PMS5003;29067;35.492;-97.520;2023-08-07T01:35:41;6;6;
43479;PMS5003;29067;35.492;-97.520;2023-08-07T01:38:11;3;3;
43479;PMS5003;29067;35.492;-97.520;2023-08-07T01:40:39;4;4;
43479;PMS5003;29067;35.492;-97.520;2023-08-07T01:43:08;4;4;
43479;PMS5003;29067;35.492;-97.520;2023-08-07T01:45:36;4;3;
43479;PMS5003;29067;35.492;-97.520;2023-08-07T01:48:05;6;5;
43479;PMS5003;29067;35.492;-97.520;2023-08-07T01:50:33;4;4;
43479;PMS5003;29067;35.492;-97.520;2023-08-07T01:53:01;5;4;
43479;PMS5003;29067;35.492;-97.520;2023-08-07T01:55:29;4;4;
43479;PMS5003;29067;35.492;-97.520;2023-08-07T01:57:58;4;4;
43479;PMS5003;29067;35.492;-97.520;2023-08-07T02:00:26;2;2;
43479;PMS5003;29067;35.492;-97.520;2023-08-07T02:02:54;3;3;
43479;PMS5003;29067;35.492;-97.520;2023-08-07T02:05:23;5;5;
43479;PMS5003;29067;35.492;-97.520;2023-08-07T02:07:51;5;5;
43479;PMS5003;29067;35.492;-97.520;2023-08-07T02:10:19;4;4;
43479;PMS5003;29067;35.492;-97.520;2023-08-07T02:12:48;4;4;
43479;PMS5003;29067;35.492;-97.520;2023-08-07T02:15:17;6;5;
43479;PMS5003;29067;35.492;-97.520;2023-08-07T02:17:45;4;4;
43479;PMS5003;29067;35.492;-97.520;2023-08-07T02:20:18;5;5;
43479;PMS5003;29067;35.492;-97.520;2023-08-07T02:22:52;7;7;
43479;PMS5003;29067;35.492;-97.520;2023-08-07T02:25:19;13;13;
43479;PMS5003;29067;35.492;-97.520;2023-08-07T02:27:53;13;13;
43479;PMS5003;29067;35.492;-97.520;2023-08-07T02:30:21;10;10;
43479;PMS5003;29067;35.492;-97.520;2023-08-07T02:32:50;10;10;
43479;PMS5003;29067;35.492;-97.520;2023-08-07T02:35:18;11;11;
43479;PMS5003;29067;35.492;-97.520;2023-08-07T02:37:48;15;15;
43479;PMS5003;29067;35.492;-97.520;2023-08-07T02:40:22;16;16;
43479;PMS5003;29067;35.492;-97.520;2023-08-07T02:42:50;19;19;
43479;PMS5003;29067;35.492;-97.520;2023-08-07T02:45:19;13;13;
43479;PMS5003;29067;35.492;-97.520;2023-08-07T02:47:48;14;13;
43479;PMS5003;29067;35.492;-97.520;2023-08-07T02:50:16;15;15;
43479;PMS5003;29067;35.492;-97.520;2023-08-07T02:52:45;14;13;
43479;PMS5003;29067;35.492;-97.520;2023-08-07T02:55:13;13;13;
43479;PMS5003;29067;35.492;-97.520;2023-08-07T02:57:46;15;14;
43479;PMS5003;29067;35.492;-97.520;2023-08-07T03:00:14;25;25;
43479;PMS5003;29067;35.492;-97.520;2023-08-07T03:02:43;58;58;
43479;PMS5003;29067;35.492;-97.520;2023-08-07T03:05:12;54;54;
43479;PMS5003;29067;35.492;-97.520;2023-08-07T03:07:45;51;50;
43479;PMS5003;29067;35.492;-97.520;2023-08-07T03:10:12;29;26;
43479;PMS5003;29067;35.492;-97.520;2023-08-07T03:12:40;23;23;
43479;PMS5003;29067;35.492;-97.520;2023-08-07T03:15:09;27;27;
43479;PMS5003;29067;35.492;-97.520;2023-08-07T03:17:37;33;33;
43479;PMS5003;29067;35.492;-97.520;2023-08-07T03:20:05;30;30;
43479;PMS5003;29067;35.492;-97.520;2023-08-07T03:22:34;50;50;
43479;PMS5003;29067;35.492;-97.520;2023-08-07T03:25:01;26;26;
43479;PMS5003;29067;35.492;-97.520;2023-08-07T03:27:31;12;12;
43479;PMS5003;29067;35.492;-97.520;2023-08-07T03:30:09;5;5;
43479;PMS5003;29067;35.492;-97.520;2023-08-07T03:32:38;5;5;
43479;PMS5003;29067;35.492;-97.520;2023-08-07T03:35:07;5;5;
43479;PMS5003;29067;35.492;-97.520;2023-08-07T03:37:40;4;4;
43479;PMS5003;29067;35.492;-97.520;2023-08-07T03:40:08;5;5;
43479;PMS5003;29067;35.492;-97.520;2023-08-07T03:42:42;4;4;
43479;PMS5003;29067;35.492;-97.520;2023-08-07T03:45:14;5;5;
43479;PMS5003;29067;35.492;-97.520;2023-08-07T03:47:48;5;5;
43479;PMS5003;29067;35.492;-97.520;2023-08-07T03:50:20;6;6;
43479;PMS5003;29067;35.492;-97.520;2023-08-07T03:52:48;6;6;
43479;PMS5003;29067;35.492;-97.520;2023-08-07T03:55:21;5;5;
43479;PMS5003;29067;35.492;-97.520;2023-08-07T03:57:48;7;7;
43479;PMS5003;29067;35.492;-97.520;2023-08-07T04:00:17;6;5;
43479;PMS5003;29067;35.492;-97.520;2023-08-07T04:02:50;4;3;
43479;PMS5003;29067;35.492;-97.520;2023-08-07T04:05:18;6;6;
43479;PMS5003;29067;35.492;-97.520;2023-08-07T04:07:53;8;8;
43479;PMS5003;29067;35.492;-97.520;2023-08-07T04:10:22;4;4;
43479;PMS5003;29067;35.492;-97.520;2023-08-07T04:12:51;7;7;
43479;PMS5003;29067;35.492;-97.520;2023-08-07T04:15:19;7;6;
43479;PMS5003;29067;35.492;-97.520;2023-08-07T04:17:50;5;5;
43479;PMS5003;29067;35.492;-97.520;2023-08-07T04:20:19;6;6;
43479;PMS5003;29067;35.492;-97.520;2023-08-07T04:22:47;5;5;
43479;PMS5003;29067;35.492;-97.520;2023-08-07T04:25:15;6;6;
43479;PMS5003;29067;35.492;-97.520;2023-08-07T04:27:48;4;4;
43479;PMS5003;29067;35.492;-97.520;2023-08-07T04:30:17;6;6;
43479;PMS5003;29067;35.492;-97.520;2023-08-07T04:32:45;6;5;
43479;PMS5003;29067;35.492;-97.520;2023-08-07T04:35:14;6;5;
43479;PMS5003;29067;35.492;-97.520;2023-08-07T04:37:42;6;6;
43479;PMS5003;29067;35.492;-97.520;2023-08-07T04:40:11;6;4;
43479;PMS5003;29067;35.492;-97.520;2023-08-07T04:42:39;7;7;
43479;PMS5003;29067;35.492;-97.520;2023-08-07T04:45:08;17;17;
43479;PMS5003;29067;35.492;-97.520;2023-08-07T04:47:37;27;27;
43479;PMS5003;29067;35.492;-97.520;2023-08-07T04:50:06;31;29;
43479;PMS5003;29067;35.492;-97.520;2023-08-07T04:52:34;26;25;
43479;PMS5003;29067;35.492;-97.520;2023-08-07T04:55:03;17;17;
43479;PMS5003;29067;35.492;-97.520;2023-08-07T04:57:32;14;14;
43479;PMS5003;29067;35.492;-97.520;2023-08-07T05:00:00;11;10;
43479;PMS5003;29067;35.492;-97.520;2023-08-07T05:02:29;7;6;
43479;PMS5003;29067;35.492;-97.520;2023-08-07T05:04:57;8;8;
43479;PMS5003;29067;35.492;-97.520;2023-08-07T05:07:25;5;5;
43479;PMS5003;29067;35.492;-97.520;2023-08-07T05:09:54;5;5;
43479;PMS5003;29067;35.492;-97.520;2023-08-07T05:12:22;5;5;
43479;PMS5003;29067;35.492;-97.520;2023-08-07T05:14:50;5;4;
43479;PMS5003;29067;35.492;-97.520;2023-08-07T05:17:28;5;5;
43479;PMS5003;29067;35.492;-97.520;2023-08-07T05:19:57;6;6;
43479;PMS5003;29067;35.492;-97.520;2023-08-07T05:22:30;5;5;
43479;PMS5003;29067;35.492;-97.520;2023-08-07T05:25:00;5;5;
43479;PMS5003;29067;35.492;-97.520;2023-08-07T05:27:28;8;8;
43479;PMS5003;29067;35.492;-97.520;2023-08-07T05:30:01;7;7;
43479;PMS5003;29067;35.492;-97.520;2023-08-07T05:32:29;6;6;
43479;PMS5003;29067;35.492;-97.520;2023-08-07T05:35:03;10;10;
43479;PMS5003;29067;35.492;-97.520;2023-08-07T05:37:34;15;15;
43479;PMS5003;29067;35.492;-97.520;2023-08-07T05:40:03;18;18;
43479;PMS5003;29067;35.492;-97.520;2023-08-07T05:42:32;16;15;
43479;PMS5003;29067;35.492;-97.520;2023-08-07T05:45:00;12;12;
43479;PMS5003;29067;35.492;-97.520;2023-08-07T05:47:30;11;11;
43479;PMS5003;29067;35.492;-97.520;2023-08-07T05:49:59;9;9;
43479;PMS5003;29067;35.492;-97.520;2023-08-07T05:52:27;14;14;
43479;PMS5003;29067;35.492;-97.520;2023-08-07T05:54:56;19;18;
43479;PMS5003;29067;35.492;-97.520;2023-08-07T05:57:24;32;32;
43479;PMS5003;29067;35.492;-97.520;2023-08-07T05:59:52;16;16;
43479;PMS5003;29067;35.492;-97.520;2023-08-07T06:02:25;25;25;
43479;PMS5003;29067;35.492;-97.520;2023-08-07T06:04:54;26;26;
43479;PMS5003;29067;35.492;-97.520;2023-08-07T06:07:28;29;29;
43479;PMS5003;29067;35.492;-97.520;2023-08-07T06:10:06;46;46;
43479;PMS5003;29067;35.492;-97.520;2023-08-07T06:12:35;8;7;
43479;PMS5003;29067;35.492;-97.520;2023-08-07T06:15:09;36;36;
43479;PMS5003;29067;35.492;-97.520;2023-08-07T06:17:37;44;44;
43479;PMS5003;29067;35.492;-97.520;2023-08-07T06:20:07;41;40;
43479;PMS5003;29067;35.492;-97.520;2023-08-07T06:22:36;28;27;
43479;PMS5003;29067;35.492;-97.520;2023-08-07T06:25:05;16;16;
43479;PMS5003;29067;35.492;-97.520;2023-08-07T06:27:34;47;47;
43479;PMS5003;29067;35.492;-97.520;2023-08-07T06:30:02;64;64;
43479;PMS5003;29067;35.492;-97.520;2023-08-07T06:32:30;25;22;
43479;PMS5003;29067;35.492;-97.520;2023-08-07T06:34:59;6;6;
43479;PMS5003;29067;35.492;-97.520;2023-08-07T06:37:27;6;6;
43479;PMS5003;29067;35.492;-97.520;2023-08-07T06:39:55;7;6;
43479;PMS5003;29067;35.492;-97.520;2023-08-07T06:42:30;6;6;
43479;PMS5003;29067;35.492;-97.520;2023-08-07T06:44:59;5;5;
43479;PMS5003;29067;35.492;-97.520;2023-08-07T06:47:32;28;28;
43479;PMS5003;29067;35.492;-97.520;2023-08-07T06:50:00;7;7;
43479;PMS5003;29067;35.492;-97.520;2023-08-07T06:52:29;6;5;
43479;PMS5003;29067;35.492;-97.520;2023-08-07T06:54:57;6;6;
43479;PMS5003;29067;35.492;-97.520;2023-08-07T06:57:25;6;6;
43479;PMS5003;29067;35.492;-97.520;2023-08-07T06:59:59;6;6;
43479;PMS5003;29067;35.492;-97.520;2023-08-07T07:02:27;7;7;
43479;PMS5003;29067;35.492;-97.520;2023-08-07T07:04:56;7;6;
43479;PMS5003;29067;35.492;-97.520;2023-08-07T07:07:24;5;5;
43479;PMS5003;29067;35.492;-97.520;2023-08-07T07:09:54;6;6;
43479;PMS5003;29067;35.492;-97.520;2023-08-07T07:12:27;7;7;
43479;PMS5003;29067;35.492;-97.520;2023-08-07T07:15:00;4;4;
43479;PMS5003;29067;35.492;-97.520;2023-08-07T07:17:29;5;5;
43479;PMS5003;29067;35.492;-97.520;2023-08-07T07:19:57;5;5;
43479;PMS5003;29067;35.492;-97.520;2023-08-07T07:22:25;8;7;
43479;PMS5003;29067;35.492;-97.520;2023-08-07T07:24:59;5;5;
43479;PMS5003;29067;35.492;-97.520;2023-08-07T07:27:26;7;7;
43479;PMS5003;29067;35.492;-97.520;2023-08-07T07:29:55;6;5;
43479;PMS5003;29067;35.492;-97.520;2023-08-07T07:32:23;6;6;
43479;PMS5003;29067;35.492;-97.520;2023-08-07T07:34:51;7;7;
43479;PMS5003;29067;35.492;-97.520;2023-08-07T07:37:20;5;5;
43479;PMS5003;29067;35.492;-97.520;2023-08-07T07:39:49;6;6;
43479;PMS5003;29067;35.492;-97.520;2023-08-07T07:42:18;6;5;
43479;PMS5003;29067;35.492;-97.520;2023-08-07T07:44:47;6;6;
43479;PMS5003;29067;35.492;-97.520;2023-08-07T07:47:15;6;6;
43479;PMS5003;29067;35.492;-97.520;2023-08-07T07:49:45;6;6;
43479;PMS5003;29067;35.492;-97.520;2023-08-07T07:52:14;5;5;
43479;PMS5003;29067;35.492;-97.520;2023-08-07T07:54:47;5;5;
43479;PMS5003;29067;35.492;-97.520;2023-08-07T07:57:15;6;6;
43479;PMS5003;29067;35.492;-97.520;2023-08-07T07:59:44;5;5;
43479;PMS5003;29067;35.492;-97.520;2023-08-07T08:02:12;5;5;
43479;PMS5003;29067;35.492;-97.520;2023-08-07T08:04:55;5;5;
43479;PMS5003;29067;35.492;-97.520;2023-08-07T08:07:24;5;5;
43479;PMS5003;29067;35.492;-97.520;2023-08-07T08:09:52;6;6;
43479;PMS5003;29067;35.492;-97.520;2023-08-07T08:12:21;7;6;
43479;PMS5003;29067;35.492;-97.520;2023-08-07T08:14:49;5;5;
43479;PMS5003;29067;35.492;-97.520;2023-08-07T08:17:17;6;6;
43479;PMS5003;29067;35.492;-97.520;2023-08-07T08:19:45;6;6;
43479;PMS5003;29067;35.492;-97.520;2023-08-07T08:22:13;7;7;
43479;PMS5003;29067;35.492;-97.520;2023-08-07T08:24:42;6;6;
43479;PMS5003;29067;35.492;-97.520;2023-08-07T08:27:11;5;5;
43479;PMS5003;29067;35.492;-97.520;2023-08-07T08:29:39;6;5;
43479;PMS5003;29067;35.492;-97.520;2023-08-07T08:32:08;5;5;
43479;PMS5003;29067;35.492;-97.520;2023-08-07T08:34:36;5;5;
43479;PMS5003;29067;35.492;-97.520;2023-08-07T08:37:09;5;5;
43479;PMS5003;29067;35.492;-97.520;2023-08-07T08:39:37;6;5;
43479;PMS5003;29067;35.492;-97.520;2023-08-07T08:42:07;4;4;
43479;PMS5003;29067;35.492;-97.520;2023-08-07T08:44:38;6;6;
43479;PMS5003;29067;35.492;-97.520;2023-08-07T08:47:09;6;6;
43479;PMS5003;29067;35.492;-97.520;2023-08-07T08:49:40;5;4;
43479;PMS5003;29067;35.492;-97.520;2023-08-07T08:52:13;6;6;
43479;PMS5003;29067;35.492;-97.520;2023-08-07T08:54:47;6;6;
43479;PMS5003;29067;35.492;-97.520;2023-08-07T08:57:16;8;7;
43479;PMS5003;29067;35.492;-97.520;2023-08-07T08:59:45;5;5;
43479;PMS5003;29067;35.492;-97.520;2023-08-07T09:02:13;6;6;
43479;PMS5003;29067;35.492;-97.520;2023-08-07T09:04:47;6;6;
43479;PMS5003;29067;35.492;-97.520;2023-08-07T09:07:16;7;7;
43479;PMS5003;29067;35.492;-97.520;2023-08-07T09:09:46;5;5;
43479;PMS5003;29067;35.492;-97.520;2023-08-07T09:12:19;6;6;
43479;PMS5003;29067;35.492;-97.520;2023-08-07T09:14:51;5;5;
43479;PMS5003;29067;35.492;-97.520;2023-08-07T09:17:24;4;4;
43479;PMS5003;29067;35.492;-97.520;2023-08-07T09:19:55;6;6;
43479;PMS5003;29067;35.492;-97.520;2023-08-07T09:22:23;7;6;
43479;PMS5003;29067;35.492;-97.520;2023-08-07T09:24:52;8;7;
43479;PMS5003;29067;35.492;-97.520;2023-08-07T09:27:21;9;9;
43479;PMS5003;29067;35.492;-97.520;2023-08-07T09:29:49;10;9;
43479;PMS5003;29067;35.492;-97.520;2023-08-07T09:32:17;9;7;
43479;PMS5003;29067;35.492;-97.520;2023-08-07T09:34:46;8;8;
43479;PMS5003;29067;35.492;-97.520;2023-08-07T09:37:15;6;6;
43479;PMS5003;29067;35.492;-97.520;2023-08-07T09:39:43;8;8;
43479;PMS5003;29067;35.492;-97.520;2023-08-07T09:42:12;7;7;
43479;PMS5003;29067;35.492;-97.520;2023-08-07T09:44:44;9;8;
43479;PMS5003;29067;35.492;-97.520;2023-08-07T09:47:17;9;8;
43479;PMS5003;29067;35.492;-97.520;2023-08-07T09:49:45;9;9;
43479;PMS5003;29067;35.492;-97.520;2023-08-07T09:52:14;10;9;
43479;PMS5003;29067;35.492;-97.520;2023-08-07T09:54:51;9;9;
43479;PMS5003;29067;35.492;-97.520;2023-08-07T09:57:27;10;10;
43479;PMS5003;29067;35.492;-97.520;2023-08-07T09:59:57;10;10;
43479;PMS5003;29067;35.492;-97.520;2023-08-07T10:02:26;9;9;
43479;PMS5003;29067;35.492;-97.520;2023-08-07T10:05:00;10;10;
43479;PMS5003;29067;35.492;-97.520;2023-08-07T10:07:29;11;11;
43479;PMS5003;29067;35.492;-97.520;2023-08-07T10:09:58;12;12;
43479;PMS5003;29067;35.492;-97.520;2023-08-07T10:12:32;13;12;
43479;PMS5003;29067;35.492;-97.520;2023-08-07T10:15:02;11;11;
43479;PMS5003;29067;35.492;-97.520;2023-08-07T10:17:35;13;13;
43479;PMS5003;29067;35.492;-97.520;2023-08-07T10:20:04;10;9;
43479;PMS5003;29067;35.492;-97.520;2023-08-07T10:22:33;11;11;
43479;PMS5003;29067;35.492;-97.520;2023-08-07T10:25:06;11;11;
43479;PMS5003;29067;35.492;-97.520;2023-08-07T10:27:36;14;13;
43479;PMS5003;29067;35.492;-97.520;2023-08-07T10:30:07;14;12;
43479;PMS5003;29067;35.492;-97.520;2023-08-07T10:32:45;10;10;
43479;PMS5003;29067;35.492;-97.520;2023-08-07T10:35:23;13;12;
43479;PMS5003;29067;35.492;-97.520;2023-08-07T10:37:51;11;10;
43479;PMS5003;29067;35.492;-97.520;2023-08-07T10:40:20;13;13;
43479;PMS5003;29067;35.492;-97.520;2023-08-07T10:43:12;12;12;
43479;PMS5003;29067;35.492;-97.520;2023-08-07T10:45:45;14;13;
43479;PMS5003;29067;35.492;-97.520;2023-08-07T10:48:13;13;13;
43479;PMS5003;29067;35.492;-97.520;2023-08-07T10:50:56;11;11;
43479;PMS5003;29067;35.492;-97.520;2023-08-07T10:53:30;13;12;
43479;PMS5003;29067;35.492;-97.520;2023-08-07T10:56:07;14;13;
43479;PMS5003;29067;35.492;-97.520;2023-08-07T10:58:37;14;13;
43479;PMS5003;29067;35.492;-97.520;2023-08-07T11:03:00;17;17;
43479;PMS5003;29067;35.492;-97.520;2023-08-07T11:05:28;15;14;
43479;PMS5003;29067;35.492;-97.520;2023-08-07T11:07:58;16;14;
43479;PMS5003;29067;35.492;-97.520;2023-08-07T11:10:27;16;15;
43479;PMS5003;29067;35.492;-97.520;2023-08-07T11:12:58;19;18;
43479;PMS5003;29067;35.492;-97.520;2023-08-07T11:15:26;15;15;
43479;PMS5003;29067;35.492;-97.520;2023-08-07T11:17:54;16;16;
43479;PMS5003;29067;35.492;-97.520;2023-08-07T11:20:28;25;20;
43479;PMS5003;29067;35.492;-97.520;2023-08-07T11:23:02;14;13;
43479;PMS5003;29067;35.492;-97.520;2023-08-07T11:25:31;17;16;
43479;PMS5003;29067;35.492;-97.520;2023-08-07T11:28:00;18;18;
43479;PMS5003;29067;35.492;-97.520;2023-08-07T11:30:28;16;15;
43479;PMS5003;29067;35.492;-97.520;2023-08-07T11:32:58;16;15;
43479;PMS5003;29067;35.492;-97.520;2023-08-07T11:35:26;15;15;
43479;PMS5003;29067;35.492;-97.520;2023-08-07T11:37:54;15;14;
43479;PMS5003;29067;35.492;-97.520;2023-08-07T11:40:23;14;14;
43479;PMS5003;29067;35.492;-97.520;2023-08-07T11:42:51;15;13;
43479;PMS5003;29067;35.492;-97.520;2023-08-07T11:45:19;15;15;
43479;PMS5003;29067;35.492;-97.520;2023-08-07T11:47:49;18;17;
43479;PMS5003;29067;35.492;-97.520;2023-08-07T11:50:17;13;13;
43479;PMS5003;29067;35.492;-97.520;2023-08-07T11:52:46;11;11;
43479;PMS5003;29067;35.492;-97.520;2023-08-07T11:55:14;13;13;
43479;PMS5003;29067;35.492;-97.520;2023-08-07T11:57:44;25;19;
43479;PMS5003;29067;35.492;-97.520;2023-08-07T12:00:13;15;14;
43479;PMS5003;29067;35.492;-97.520;2023-08-07T12:02:43;21;17;
43479;PMS5003;29067;35.492;-97.520;2023-08-07T12:05:11;14;14;
43479;PMS5003;29067;35.492;-97.520;2023-08-07T12:07:40;14;13;
43479;PMS5003;29067;35.492;-97.520;2023-08-07T12:10:08;13;12;
43479;PMS5003;29067;35.492;-97.520;2023-08-07T12:12:37;12;12;
43479;PMS5003;29067;35.492;-97.520;2023-08-07T12:15:08;15;14;
43479;PMS5003;29067;35.492;-97.520;2023-08-07T12:17:36;12;11;
43479;PMS5003;29067;35.492;-97.520;2023-08-07T12:20:05;13;12;
43479;PMS5003;29067;35.492;-97.520;2023-08-07T12:22:34;15;14;
43479;PMS5003;29067;35.492;-97.520;2023-08-07T12:25:03;13;13;
43479;PMS5003;29067;35.492;-97.520;2023-08-07T12:27:31;12;12;
43479;PMS5003;29067;35.492;-97.520;2023-08-07T12:30:00;16;15;
43479;PMS5003;29067;35.492;-97.520;2023-08-07T12:32:27;15;13;
43479;PMS5003;29067;35.492;-97.520;2023-08-07T12:34:55;14;14;
43479;PMS5003;29067;35.492;-97.520;2023-08-07T12:37:23;15;14;
43479;PMS5003;29067;35.492;-97.520;2023-08-07T12:39:50;14;14;
43479;PMS5003;29067;35.492;-97.520;2023-08-07T12:42:19;13;13;
43479;PMS5003;29067;35.492;-97.520;2023-08-07T12:44:48;13;13;
43479;PMS5003;29067;35.492;-97.520;2023-08-07T12:47:16;13;13;
43479;PMS5003;29067;35.492;-97.520;2023-08-07T12:49:44;10;10;
43479;PMS5003;29067;35.492;-97.520;2023-08-07T12:52:12;13;12;
43479;PMS5003;29067;35.492;-97.520;2023-08-07T12:54:40;15;14;
43479;PMS5003;29067;35.492;-97.520;2023-08-07T12:57:08;13;12;
43479;PMS5003;29067;35.492;-97.520;2023-08-07T12:59:36;14;13;
43479;PMS5003;29067;35.492;-97.520;2023-08-07T13:02:09;14;14;
43479;PMS5003;29067;35.492;-97.520;2023-08-07T13:04:37;16;13;
43479;PMS5003;29067;35.492;-97.520;2023-08-07T13:07:05;20;19;
43479;PMS5003;29067;35.492;-97.520;2023-08-07T13:09:32;15;14;
43479;PMS5003;29067;35.492;-97.520;2023-08-07T13:12:00;15;14;
43479;PMS5003;29067;35.492;-97.520;2023-08-07T13:14:29;17;17;
43479;PMS5003;29067;35.492;-97.520;2023-08-07T13:16:57;15;14;
43479;PMS5003;29067;35.492;-97.520;2023-08-07T13:19:25;16;15;
43479;PMS5003;29067;35.492;-97.520;2023-08-07T13:21:53;20;20;
43479;PMS5003;29067;35.492;-97.520;2023-08-07T13:24:26;20;20;
43479;PMS5003;29067;35.492;-97.520;2023-08-07T13:26:54;22;22;
43479;PMS5003;29067;35.492;-97.520;2023-08-07T13:29:22;25;24;
43479;PMS5003;29067;35.492;-97.520;2023-08-07T13:31:50;19;18;
43479;PMS5003;29067;35.492;-97.520;2023-08-07T13:34:18;15;14;
43479;PMS5003;29067;35.492;-97.520;2023-08-07T13:36:46;14;13;
43479;PMS5003;29067;35.492;-97.520;2023-08-07T13:39:14;14;12;
43479;PMS5003;29067;35.492;-97.520;2023-08-07T13:41:41;11;11;
43479;PMS5003;29067;35.492;-97.520;2023-08-07T13:44:09;14;13;
43479;PMS5003;29067;35.492;-97.520;2023-08-07T13:46:37;14;14;
43479;PMS5003;29067;35.492;-97.520;2023-08-07T13:49:06;14;13;
43479;PMS5003;29067;35.492;-97.520;2023-08-07T13:51:34;9;9;
43479;PMS5003;29067;35.492;-97.520;2023-08-07T13:54:02;12;12;
43479;PMS5003;29067;35.492;-97.520;2023-08-07T13:56:31;10;10;
43479;PMS5003;29067;35.492;-97.520;2023-08-07T13:58:58;11;11;
43479;PMS5003;29067;35.492;-97.520;2023-08-07T14:01:27;12;11;
43479;PMS5003;29067;35.492;-97.520;2023-08-07T14:03:55;11;11;
43479;PMS5003;29067;35.492;-97.520;2023-08-07T14:06:23;11;10;
43479;PMS5003;29067;35.492;-97.520;2023-08-07T14:08:51;18;15;
43479;PMS5003;29067;35.492;-97.520;2023-08-07T14:11:19;10;9;
43479;PMS5003;29067;35.492;-97.520;2023-08-07T14:13:46;14;13;
43479;PMS5003;29067;35.492;-97.520;2023-08-07T14:16:14;15;15;
43479;PMS5003;29067;35.492;-97.520;2023-08-07T14:18:42;12;11;
43479;PMS5003;29067;35.492;-97.520;2023-08-07T14:21:09;10;10;
43479;PMS5003;29067;35.492;-97.520;2023-08-07T14:23:37;15;11;
43479;PMS5003;29067;35.492;-97.520;2023-08-07T14:26:05;13;12;
43479;PMS5003;29067;35.492;-97.520;2023-08-07T14:28:33;15;13;
43479;PMS5003;29067;35.492;-97.520;2023-08-07T14:31:05;12;12;
43479;PMS5003;29067;35.492;-97.520;2023-08-07T14:33:34;18;14;
43479;PMS5003;29067;35.492;-97.520;2023-08-07T14:36:04;15;14;
43479;PMS5003;29067;35.492;-97.520;2023-08-07T14:38:32;14;12;
43479;PMS5003;29067;35.492;-97.520;2023-08-07T14:41:00;12;11;
43479;PMS5003;29067;35.492;-97.520;2023-08-07T14:43:29;16;13;
43479;PMS5003;29067;35.492;-97.520;2023-08-07T14:45:58;12;12;
43479;PMS5003;29067;35.492;-97.520;2023-08-07T14:48:26;12;11;
43479;PMS5003;29067;35.492;-97.520;2023-08-07T14:50:54;14;13;
43479;PMS5003;29067;35.492;-97.520;2023-08-07T14:53:23;14;14;
43479;PMS5003;29067;35.492;-97.520;2023-08-07T14:55:51;13;13;
43479;PMS5003;29067;35.492;-97.520;2023-08-07T14:58:19;13;11;
43479;PMS5003;29067;35.492;-97.520;2023-08-07T15:00:48;12;12;
43479;PMS5003;29067;35.492;-97.520;2023-08-07T15:03:16;17;16;
43479;PMS5003;29067;35.492;-97.520;2023-08-07T15:05:44;17;17;
43479;PMS5003;29067;35.492;-97.520;2023-08-07T15:08:11;14;13;
43479;PMS5003;29067;35.492;-97.520;2023-08-07T15:10:39;14;14;
43479;PMS5003;29067;35.492;-97.520;2023-08-07T15:13:07;14;14;
43479;PMS5003;29067;35.492;-97.520;2023-08-07T15:15:35;14;13;
43479;PMS5003;29067;35.492;-97.520;2023-08-07T15:18:03;13;13;
43479;PMS5003;29067;35.492;-97.520;2023-08-07T15:20:33;12;12;
43479;PMS5003;29067;35.492;-97.520;2023-08-07T15:23:02;15;14;
43479;PMS5003;29067;35.492;-97.520;2023-08-07T15:25:30;15;14;
43479;PMS5003;29067;35.492;-97.520;2023-08-07T15:27:58;13;13;
43479;PMS5003;29067;35.492;-97.520;2023-08-07T15:30:26;15;13;
43479;PMS5003;29067;35.492;-97.520;2023-08-07T15:32:55;14;13;
43479;PMS5003;29067;35.492;-97.520;2023-08-07T15:35:23;10;10;
43479;PMS5003;29067;35.492;-97.520;2023-08-07T15:37:51;14;14;
43479;PMS5003;29067;35.492;-97.520;2023-08-07T15:40:19;12;11;
43479;PMS5003;29067;35.492;-97.520;2023-08-07T15:42:47;11;11;
43479;PMS5003;29067;35.492;-97.520;2023-08-07T15:45:16;11;11;
43479;PMS5003;29067;35.492;-97.520;2023-08-07T15:47:44;14;13;
43479;PMS5003;29067;35.492;-97.520;2023-08-07T15:50:12;27;27;
43479;PMS5003;29067;35.492;-97.520;2023-08-07T15:52:39;32;32;
43479;PMS5003;29067;35.492;-97.520;2023-08-07T15:55:08;26;26;
43479;PMS5003;29067;35.492;-97.520;2023-08-07T15:57:36;23;23;
43479;PMS5003;29067;35.492;-97.520;2023-08-07T16:00:05;26;25;
43479;PMS5003;29067;35.492;-97.520;2023-08-07T16:02:35;26;26;
43479;PMS5003;29067;35.492;-97.520;2023-08-07T16:05:03;22;22;
43479;PMS5003;29067;35.492;-97.520;2023-08-07T16:07:32;19;18;
43479;PMS5003;29067;35.492;-97.520;2023-08-07T16:10:00;14;14;
43479;PMS5003;29067;35.492;-97.520;2023-08-07T16:12:27;17;15;
43479;PMS5003;29067;35.492;-97.520;2023-08-07T16:14:56;11;10;
43479;PMS5003;29067;35.492;-97.520;2023-08-07T16:17:24;11;11;